createdAt,value
2022-08-01T00:02:41.347Z,98568.77
2022-08-01T00:05:54.293Z,98567.97
2022-08-01T00:09:06.263Z,98559.73
2022-08-01T00:12:18.145Z,98561.38
2022-08-01T00:15:30.065Z,98564.06
2022-08-01T00:18:41.943Z,98567.13
2022-08-01T00:21:53.587Z,98559.28
2022-08-01T00:25:09.470Z,98524.70
2022-08-01T00:28:21.245Z,98576.81
2022-08-01T00:31:32.835Z,98561.12
2022-08-01T00:34:44.586Z,98569.34
2022-08-01T00:37:56.717Z,98569.16
2022-08-01T00:41:08.394Z,98559.63
2022-08-01T00:44:20.339Z,98565.18
2022-08-01T00:47:32.625Z,98567.41
2022-08-01T00:50:44.879Z,98571.08
2022-08-01T00:53:57.765Z,98569.44
2022-08-01T00:57:11.415Z,98569.59
2022-08-01T01:00:27.387Z,98569.78
2022-08-01T01:03:58.170Z,98569.33
2022-08-01T01:06:59.939Z,98574.69
2022-08-01T01:10:17.273Z,98570.97
2022-08-01T01:13:35.795Z,98575.69
2022-08-01T01:16:51.094Z,98575.52
2022-08-01T01:20:06.509Z,98572.00
2022-08-01T01:23:51.684Z,98570.16
2022-08-01T01:27:10.190Z,98572.66
2022-08-01T01:30:22.570Z,98565.27
2022-08-01T01:33:36.372Z,98578.02
2022-08-01T01:36:51.381Z,98583.38
2022-08-01T01:40:04.167Z,98579.50
2022-08-01T01:43:18.704Z,98575.33
2022-08-01T01:46:33.145Z,98585.02
2022-08-01T01:49:46.914Z,98579.66
2022-08-01T01:53:00.658Z,98584.02
2022-08-01T01:56:13.428Z,98575.52
2022-08-01T01:59:32.844Z,98571.36
2022-08-01T02:02:45.863Z,98577.91
2022-08-01T02:06:00.094Z,98577.25
2022-08-01T02:09:13.623Z,98578.28
2022-08-01T02:12:26.656Z,98573.77
2022-08-01T02:15:59.666Z,98574.49
2022-08-01T02:18:54.531Z,98568.95
2022-08-01T02:22:10.064Z,98570.97
2022-08-01T02:25:28.489Z,98572.81
2022-08-01T02:28:46.625Z,98580.84
2022-08-01T02:32:01.346Z,98578.55
2022-08-01T02:35:17.218Z,98583.91
2022-08-01T02:38:32.752Z,98586.74
2022-08-01T02:41:49.020Z,98586.00
2022-08-01T02:45:01.810Z,98587.53
2022-08-01T02:48:18.595Z,98596.66
2022-08-01T02:51:32.261Z,98592.48
2022-08-01T02:54:46.652Z,98592.21
2022-08-01T02:58:00.863Z,98597.91
2022-08-01T03:01:15.582Z,98593.92
2022-08-01T03:04:30.242Z,98599.27
2022-08-01T03:07:42.965Z,98600.83
2022-08-01T03:10:55.911Z,98610.04
2022-08-01T03:14:11.837Z,98604.03
2022-08-01T03:17:25.552Z,98600.73
2022-08-01T03:20:39.680Z,98605.73
2022-08-01T03:23:55.273Z,98596.86
2022-08-01T03:27:09.463Z,98601.56
2022-08-01T03:30:22.831Z,98599.25
2022-08-01T03:33:35.401Z,98593.06
2022-08-01T03:36:53.632Z,98599.07
2022-08-01T03:40:10.188Z,98600.09
2022-08-01T03:43:28.072Z,98602.77
2022-08-01T03:46:47.561Z,98604.94
2022-08-01T03:50:01.186Z,98614.47
2022-08-01T03:53:14.744Z,98617.33
2022-08-01T03:56:28.530Z,98617.14
2022-08-01T03:59:41.632Z,98619.82
2022-08-01T04:02:56.045Z,98619.82
2022-08-01T04:06:11.649Z,98618.17
2022-08-01T04:09:24.360Z,98616.16
2022-08-01T04:12:36.325Z,98624.18
2022-08-01T04:15:48.053Z,98620.14
2022-08-01T04:19:00.470Z,98621.79
2022-08-01T04:22:13.893Z,98616.94
2022-08-01T04:25:31.074Z,98618.72
2022-08-01T04:28:44.901Z,98618.67
2022-08-01T04:32:00.959Z,98620.63
2022-08-01T04:35:23.179Z,98622.25
2022-08-01T04:38:34.735Z,98621.63
2022-08-01T04:41:47.598Z,98625.08
2022-08-01T04:44:59.779Z,98625.73
2022-08-01T04:48:13.803Z,98633.05
2022-08-01T04:51:26.874Z,98629.00
2022-08-01T04:54:41.863Z,98632.52
2022-08-01T04:57:54.992Z,98639.06
2022-08-01T05:01:06.752Z,98642.58
2022-08-01T05:04:18.525Z,98632.79
2022-08-01T05:07:30.593Z,98636.50
2022-08-01T05:10:42.750Z,98628.73
2022-08-01T05:13:54.533Z,98636.05
2022-08-01T05:17:07.342Z,98636.34
2022-08-01T05:20:20.663Z,98641.33
2022-08-01T05:23:42.188Z,98638.95
2022-08-01T05:26:46.395Z,98626.36
2022-08-01T05:30:01.821Z,98633.09
2022-08-01T05:33:13.617Z,98632.09
2022-08-01T05:36:25.377Z,98637.33
2022-08-01T05:39:37.520Z,98634.55
2022-08-01T05:42:49.378Z,98632.77
2022-08-01T05:46:02.080Z,98622.01
2022-08-01T05:49:14.854Z,98634.33
2022-08-01T05:52:26.563Z,98643.42
2022-08-01T05:55:38.325Z,98635.62
2022-08-01T05:58:50.493Z,98635.62
2022-08-01T06:02:02.579Z,98638.19
2022-08-01T06:05:16.361Z,98637.17
2022-08-01T06:08:27.990Z,98633.41
2022-08-01T06:11:40.464Z,98633.07
2022-08-01T06:14:52.160Z,98634.72
2022-08-01T06:18:04.874Z,98637.98
2022-08-01T06:21:16.534Z,98631.56
2022-08-01T06:24:28.119Z,98638.53
2022-08-01T06:27:42.452Z,98637.15
2022-08-01T06:30:54.690Z,98635.17
2022-08-01T06:34:06.642Z,98631.57
2022-08-01T06:37:18.283Z,98639.72
2022-08-01T06:40:31.178Z,98645.35
2022-08-01T06:55:09.741Z,98636.16
2022-08-01T06:58:21.370Z,98633.59
2022-08-01T07:01:36.274Z,98633.86
2022-08-01T07:04:47.992Z,98635.89
2022-08-01T07:08:00.501Z,98632.98
2022-08-01T07:11:12.204Z,98634.61
2022-08-01T07:14:23.901Z,98635.12
2022-08-01T07:17:35.600Z,98626.50
2022-08-01T07:20:52.645Z,98633.59
2022-08-01T07:24:01.124Z,98628.03
2022-08-01T07:27:25.705Z,98638.91
2022-08-01T07:30:27.212Z,98640.61
2022-08-01T07:33:48.857Z,98632.83
2022-08-01T07:36:52.811Z,98634.00
2022-08-01T07:40:05.521Z,98629.69
2022-08-01T07:43:17.453Z,98628.13
2022-08-01T07:46:31.293Z,98632.52
2022-08-01T07:49:43.278Z,98635.31
2022-08-01T07:52:55.208Z,98622.36
2022-08-01T07:56:07.701Z,98630.04
2022-08-01T07:59:26.182Z,98624.36
2022-08-01T08:02:33.871Z,98613.67
2022-08-01T08:05:58.461Z,98608.59
2022-08-01T08:08:59.352Z,98613.70
2022-08-01T08:12:13.246Z,98609.19
2022-08-01T08:15:25.199Z,98607.86
2022-08-01T08:18:37.140Z,98620.78
2022-08-01T08:21:50.305Z,98615.11
2022-08-01T08:25:02.176Z,98608.70
2022-08-01T08:28:14.367Z,98615.31
2022-08-01T08:31:51.991Z,98605.31
2022-08-01T08:34:40.513Z,98608.42
2022-08-01T08:37:55.879Z,98610.06
2022-08-01T08:41:06.985Z,98595.84
2022-08-01T08:44:19.189Z,98613.36
2022-08-01T08:47:32.582Z,98612.03
2022-08-01T08:50:45.902Z,98602.78
2022-08-01T08:54:01.683Z,98603.69
2022-08-01T08:57:14.682Z,98603.33
2022-08-01T09:00:27.114Z,98608.72
2022-08-01T09:03:39.085Z,98607.69
2022-08-01T09:06:51.121Z,98611.39
2022-08-01T09:10:02.788Z,98606.63
2022-08-01T09:13:19.032Z,98610.27
2022-08-01T09:16:30.822Z,98606.35
2022-08-01T09:19:48.845Z,98610.59
2022-08-01T09:23:00.925Z,98606.25
2022-08-01T09:26:13.136Z,98606.27
2022-08-01T09:29:38.380Z,98618.83
2022-08-01T09:33:01.821Z,98615.33
2022-08-01T09:36:16.049Z,98615.02
2022-08-01T09:39:31.252Z,98613.34
2022-08-01T09:42:43.146Z,98612.09
2022-08-01T09:45:55.471Z,98612.50
2022-08-01T09:49:11.573Z,98612.16
2022-08-01T09:52:29.037Z,98605.14
2022-08-01T09:55:42.072Z,98593.66
2022-08-01T09:59:02.957Z,98596.95
2022-08-01T10:02:18.314Z,98604.86
2022-08-01T10:05:43.544Z,98598.02
2022-08-01T10:08:58.028Z,98602.38
2022-08-01T10:12:15.939Z,98592.77
2022-08-01T10:15:36.891Z,98603.48
2022-08-01T10:18:41.994Z,98595.29
2022-08-01T10:21:56.963Z,98595.50
2022-08-01T10:25:14.014Z,98602.16
2022-08-01T10:28:28.240Z,98596.95
2022-08-01T10:31:40.558Z,98595.27
2022-08-01T10:34:53.324Z,98606.77
2022-08-01T10:38:05.848Z,98598.45
2022-08-01T10:41:20.171Z,98596.23
2022-08-01T10:44:34.217Z,98598.89
2022-08-01T10:47:53.199Z,98594.02
2022-08-01T10:51:18.417Z,98598.41
2022-08-01T10:54:25.133Z,98596.34
2022-08-01T10:57:53.233Z,98595.31
2022-08-01T11:01:29.349Z,98592.72
2022-08-01T11:04:54.781Z,98599.09
2022-08-01T11:08:11.929Z,98595.41
2022-08-01T11:11:24.213Z,98590.16
2022-08-01T11:14:55.138Z,98594.35
2022-08-01T11:17:54.618Z,98594.97
2022-08-01T11:21:59.262Z,98580.30
2022-08-01T11:24:21.857Z,98594.30
2022-08-01T11:27:37.394Z,98599.28
2022-08-01T11:30:50.463Z,98597.64
2022-08-01T11:34:03.580Z,98593.92
2022-08-01T11:37:32.909Z,98598.33
2022-08-01T11:40:45.440Z,98595.96
2022-08-01T11:44:09.033Z,98598.95
2022-08-01T11:47:21.396Z,98588.34
2022-08-01T11:50:41.687Z,98585.36
2022-08-01T11:53:56.172Z,98587.14
2022-08-01T11:57:10.948Z,98591.30
2022-08-01T12:00:24.994Z,98580.66
2022-08-01T12:03:38.240Z,98585.52
2022-08-01T12:06:50.938Z,98585.70
2022-08-01T12:10:13.121Z,98585.25
2022-08-01T12:13:25.253Z,98588.34
2022-08-01T12:16:36.953Z,98584.48
2022-08-01T12:19:49.250Z,98581.43
2022-08-01T12:23:06.177Z,98590.78
2022-08-01T12:26:28.562Z,98589.48
2022-08-01T12:29:47.167Z,98585.39
2022-08-01T12:33:01.950Z,98579.59
2022-08-01T12:36:14.969Z,98581.31
2022-08-01T12:39:27.132Z,98579.72
2022-08-01T12:42:44.732Z,98586.00
2022-08-01T12:46:01.097Z,98584.91
2022-08-01T12:49:11.396Z,98575.84
2022-08-01T12:52:26.626Z,98575.20
2022-08-01T12:55:39.209Z,98571.11
2022-08-01T12:58:54.894Z,98560.61
2022-08-01T13:02:14.500Z,98568.03
2022-08-01T13:05:28.259Z,98571.94
2022-08-01T13:08:41.656Z,98568.55
2022-08-01T13:12:03.847Z,98567.09
2022-08-01T13:15:32.546Z,98569.52
2022-08-01T13:18:44.939Z,98565.83
2022-08-01T13:22:06.188Z,98561.65
2022-08-01T13:25:25.199Z,98559.09
2022-08-01T13:28:38.037Z,98568.70
2022-08-01T13:31:50.086Z,98566.63
2022-08-01T13:35:13.236Z,98570.64
2022-08-01T13:38:27.183Z,98569.39
2022-08-01T13:41:41.649Z,98572.68
2022-08-01T13:44:53.556Z,98574.72
2022-08-01T13:48:13.146Z,98569.38
2022-08-01T13:51:22.149Z,98577.29
2022-08-01T13:54:34.307Z,98575.80
2022-08-01T13:57:46.017Z,98576.38
2022-08-01T14:00:57.841Z,98577.11
2022-08-01T14:04:10.299Z,98577.44
2022-08-01T14:07:22.446Z,98582.16
2022-08-01T14:10:35.008Z,98579.18
2022-08-01T14:18:11.205Z,98581.95
2022-08-01T14:21:25.383Z,98586.23
2022-08-01T14:24:37.042Z,98590.53
2022-08-01T14:27:50.829Z,98588.91
2022-08-01T14:31:03.143Z,98588.07
2022-08-01T14:34:14.961Z,98585.53
2022-08-01T14:37:28.729Z,98593.11
2022-08-01T14:40:41.560Z,98583.19
2022-08-01T14:43:53.443Z,98583.73
2022-08-01T14:47:21.525Z,98584.57
2022-08-01T14:50:20.924Z,98581.60
2022-08-01T14:53:34.241Z,98590.19
2022-08-01T14:56:47.030Z,98582.91
2022-08-01T15:00:00.735Z,98585.28
2022-08-01T15:03:13.600Z,98576.28
2022-08-01T15:06:25.568Z,98575.45
2022-08-01T15:09:37.493Z,98579.92
2022-08-01T15:12:50.627Z,98587.00
2022-08-01T15:16:03.155Z,98578.45
2022-08-01T15:19:17.619Z,98578.30
2022-08-01T15:22:33.128Z,98581.77
2022-08-01T15:25:44.981Z,98579.88
2022-08-01T15:28:57.077Z,98575.83
2022-08-01T15:32:10.081Z,98574.52
2022-08-01T15:35:22.069Z,98573.10
2022-08-01T15:38:33.915Z,98572.17
2022-08-01T15:41:46.117Z,98574.47
2022-08-01T15:45:00.014Z,98583.54
2022-08-01T15:48:12.881Z,98577.08
2022-08-01T15:51:25.133Z,98579.53
2022-08-01T15:54:38.122Z,98564.66
2022-08-01T16:06:25.864Z,98587.32
2022-08-01T16:16:59.160Z,98589.58
2022-08-01T16:23:11.328Z,98588.33
2022-08-01T16:26:27.640Z,98585.86
2022-08-01T16:29:37.440Z,98583.60
2022-08-01T16:32:51.420Z,98582.42
2022-08-01T16:36:03.490Z,98590.24
2022-08-01T16:39:18.462Z,98584.59
2022-08-01T16:42:29.646Z,98582.33
2022-08-01T16:45:43.038Z,98587.55
2022-08-01T16:48:54.812Z,98581.89
2022-08-01T16:52:07.381Z,98585.53
2022-08-01T16:55:19.332Z,98587.53
2022-08-01T16:58:31.070Z,98584.58
2022-08-01T17:02:00.026Z,98595.69
2022-08-01T17:04:56.580Z,98583.05
2022-08-01T17:08:08.433Z,98603.59
2022-08-01T17:11:20.299Z,98598.64
2022-08-01T17:14:34.086Z,98597.47
2022-08-01T17:17:45.846Z,98605.26
2022-08-01T17:20:57.404Z,98608.41
2022-08-01T17:24:10.001Z,98622.38
2022-08-01T17:27:23.643Z,98626.95
2022-08-01T17:30:35.471Z,98625.05
2022-08-01T17:33:51.613Z,98620.27
2022-08-01T17:37:01.229Z,98621.89
2022-08-01T17:40:39.185Z,98610.53
2022-08-01T17:43:30.197Z,98627.70
2022-08-01T17:46:42.159Z,98626.48
2022-08-01T17:49:55.106Z,98631.14
2022-08-01T17:53:07.119Z,98635.82
2022-08-01T17:56:18.754Z,98628.83
2022-08-01T17:59:30.421Z,98629.73
2022-08-01T18:02:42.039Z,98629.20
2022-08-01T18:05:54.256Z,98632.98
2022-08-01T18:09:09.526Z,98631.97
2022-08-01T18:12:23.245Z,98643.21
2022-08-01T18:15:35.577Z,98644.48
2022-08-01T18:18:48.602Z,98645.31
2022-08-01T18:22:00.787Z,98643.50
2022-08-01T18:25:14.169Z,98643.73
2022-08-01T18:28:32.867Z,98645.29
2022-08-01T18:31:42.463Z,98664.67
2022-08-01T18:34:54.301Z,98654.68
2022-08-01T18:38:06.161Z,98665.56
2022-08-01T18:41:19.941Z,98669.34
2022-08-01T18:44:32.656Z,98661.00
2022-08-01T18:47:45.089Z,98665.23
2022-08-01T18:50:57.603Z,98671.69
2022-08-01T18:54:09.420Z,98673.18
2022-08-01T18:57:22.467Z,98669.91
2022-08-01T19:00:34.831Z,98686.00
2022-08-01T19:03:47.087Z,98682.30
2022-08-01T19:06:58.701Z,98690.42
2022-08-01T19:10:12.344Z,98698.73
2022-08-01T19:13:25.865Z,98697.70
2022-08-01T19:16:38.119Z,98690.84
2022-08-01T19:19:50.577Z,98696.52
2022-08-01T19:23:05.096Z,98706.73
2022-08-01T19:26:21.277Z,98705.50
2022-08-01T19:29:36.494Z,98705.95
2022-08-01T19:32:50.464Z,98717.81
2022-08-01T19:36:02.631Z,98718.48
2022-08-01T19:39:16.878Z,98717.45
2022-08-01T19:42:32.788Z,98719.83
2022-08-01T19:45:46.381Z,98715.45
2022-08-01T19:48:58.121Z,98720.69
2022-08-01T19:52:11.915Z,98724.02
2022-08-01T19:55:24.783Z,98720.70
2022-08-01T19:58:39.189Z,98720.92
2022-08-01T20:01:52.639Z,98719.06
2022-08-01T20:05:05.876Z,98719.06
2022-08-01T20:08:18.321Z,98721.95
2022-08-01T20:11:33.662Z,98721.56
2022-08-01T20:14:49.820Z,98733.44
2022-08-01T20:18:04.460Z,98725.96
2022-08-01T20:21:17.422Z,98721.19
2022-08-01T20:24:33.181Z,98724.95
2022-08-01T20:31:36.139Z,98722.48
2022-08-01T20:34:47.390Z,98726.88
2022-08-01T20:38:06.041Z,98729.58
2022-08-01T20:41:18.476Z,98736.63
2022-08-01T20:44:32.604Z,98735.38
2022-08-01T20:47:48.754Z,98739.95
2022-08-01T20:51:19.994Z,98735.59
2022-08-01T20:54:32.890Z,98737.47
2022-08-01T20:57:47.706Z,98742.48
2022-08-01T21:01:03.068Z,98739.59
2022-08-01T21:04:47.026Z,98747.48
2022-08-01T21:08:03.560Z,98752.49
2022-08-01T21:11:20.753Z,98749.17
2022-08-01T21:14:40.460Z,98743.34
2022-08-01T21:17:59.316Z,98757.89
2022-08-01T21:21:16.925Z,98760.80
2022-08-01T21:24:42.946Z,98760.80
2022-08-01T21:27:57.524Z,98749.58
2022-08-01T21:31:11.357Z,98758.92
2022-08-01T21:34:24.478Z,98758.92
2022-08-01T21:37:37.162Z,98760.80
2022-08-01T21:40:50.313Z,98768.71
2022-08-01T21:44:04.228Z,98756.23
2022-08-01T21:47:17.800Z,98759.16
2022-08-01T21:50:31.120Z,98764.55
2022-08-01T21:53:51.431Z,98764.95
2022-08-01T21:57:09.680Z,98770.37
2022-08-01T22:00:26.027Z,98771.82
2022-08-01T22:03:46.908Z,98768.71
2022-08-01T22:07:02.962Z,98770.36
2022-08-01T22:10:19.855Z,98772.42
2022-08-01T22:13:29.681Z,98770.78
2022-08-01T22:16:43.306Z,98778.65
2022-08-01T22:19:56.493Z,98773.68
2022-08-01T22:23:09.254Z,98783.84
2022-08-01T22:26:23.609Z,98784.23
2022-08-01T22:29:36.970Z,98779.69
2022-08-01T22:33:07.183Z,98776.36
2022-08-01T22:36:07.497Z,98779.66
2022-08-01T22:39:22.358Z,98776.55
2022-08-01T22:42:37.477Z,98779.23
2022-08-01T22:45:55.560Z,98781.06
2022-08-01T22:49:15.871Z,98779.80
2022-08-01T22:52:34.877Z,98775.86
2022-08-01T22:55:58.451Z,98771.90
2022-08-01T22:59:10.502Z,98770.64
2022-08-01T23:02:25.148Z,98758.18
2022-08-01T23:05:41.659Z,98765.64
2022-08-01T23:08:58.791Z,98766.48
2022-08-01T23:12:13.396Z,98763.79
2022-08-01T23:15:26.639Z,98766.03
2022-08-01T23:18:38.658Z,98768.55
2022-08-01T23:21:54.066Z,98764.59
2022-08-01T23:25:11.952Z,98760.43
2022-08-01T23:28:24.421Z,98757.95
2022-08-01T23:31:55.568Z,98763.34
2022-08-01T23:34:51.962Z,98755.42
2022-08-01T23:38:04.523Z,98753.16
2022-08-01T23:41:19.355Z,98758.51
2022-08-01T23:44:31.232Z,98749.41
2022-08-01T23:47:43.010Z,98748.57
2022-08-01T23:59:55.577Z,98763.90
